メインページ
METAR-TAF:

METAR-TAF

空港 :

香港, 中華人民共和国

香港国際空港

緯度: 22-19N, 経度: 113-55E, 海抜: 9m

現時点の気象観測

当レポートは35分前の23:00(UTC)に作成
の風 9kt
気温 29°C
湿度 84%
気圧 1008 hPa
視程10km以上
高度1600ftの雲はほとんどない
高度2500ftの雲は散在している

METAR: VHHH 232300Z 10009KT 9999 FEW016 SCT025 29/26 Q1008 NOSIG

時間: 07:35 (23:35 UTC)

予報

当レポートは6時間35分前の17:00(UTC)に作成
予報は23日の 18時(UTC)から 24日の 24時(UTC)まで有効
の風 10kt
視程10km以上
高度2000ftの雲はほとんどない
高度3000ftの雲は散在している
23日の 21時(UTC)から 24日の 03時(UTC)まで一時的に
視程: 3500m
高度1000ftの雲はほとんどない, 積乱雲.
高度2000ftの雲は散在している
にわか雨
24日の 03時(UTC)から 24日の 12時(UTC)まで一時的に
東/南東の風 20kt、最大30ktの突風を伴う
視程: 2500m
高度1000ftの雲はほとんどない, 積乱雲.
高度2000ftの雲は散在している
激しい雷雨, 小雨, にわか雨
24日の 15時(UTC)から 24日の 17時(UTC)まで徐々に
南/南東の風 10kt

TAF: VHHH 231700Z 2318/2424 10010KT 9999 FEW020 SCT030 TX32/2406Z TN27/2322Z TN27/2422Z TEMPO 2321/2403 3500 SHRA FEW010CB SCT020 TEMPO 2403/2412 11020G30KT 2500 -TSRA SHRA FEW010CB SCT020 BECMG 2415/2417 16010KT

4,000以上の空港の気象観測と天気予報(METAR報とTAF報)

利用可能な観測所は地図上に黄色い丸と赤い丸で示す。

丸の上にカーソルを重ねると観測所名を参照できる。

次にクリックすると気象観測と天気予報を参照できる。

マップの切り替え:黒色「×」印の緑ボタンをクリックして拡大、「-」印の緑ボタンをクリックして縮小、緑色の三角印をクリックして隣りの地図に切り替え


METAR-TAF: